createdAt,value
2017-08-20T00:00:53.877Z,97.50
2017-08-20T00:03:20.035Z,97.50
2017-08-20T00:05:46.169Z,97.60
2017-08-20T00:08:12.324Z,97.80
2017-08-20T00:10:39.189Z,98.00
2017-08-20T00:13:05.307Z,97.80
2017-08-20T00:15:32.208Z,97.90
2017-08-20T00:17:58.341Z,97.90
2017-08-20T00:20:24.472Z,98.00
2017-08-20T00:22:50.601Z,98.00
2017-08-20T00:25:16.746Z,98.00
2017-08-20T00:27:43.789Z,98.10
2017-08-20T00:30:10.660Z,97.90
2017-08-20T00:32:36.816Z,97.90
2017-08-20T00:35:02.969Z,97.90
2017-08-20T00:37:29.105Z,98.00
2017-08-20T00:39:55.241Z,97.90
2017-08-20T00:42:21.460Z,98.10
2017-08-20T00:44:47.617Z,98.20
2017-08-20T00:47:13.743Z,98.20
2017-08-20T00:49:39.931Z,98.20
2017-08-20T00:52:06.088Z,98.00
2017-08-20T00:54:32.256Z,98.00
2017-08-20T00:56:58.396Z,98.00
2017-08-20T00:59:24.731Z,98.00
2017-08-20T01:01:50.874Z,98.00
2017-08-20T01:04:17.732Z,98.20
2017-08-20T01:06:44.780Z,97.80
2017-08-20T01:09:11.640Z,97.90
2017-08-20T01:11:37.765Z,97.90
2017-08-20T01:14:03.905Z,97.80
2017-08-20T01:16:30.056Z,97.60
2017-08-20T01:18:56.184Z,97.60
2017-08-20T01:21:22.337Z,97.60
2017-08-20T01:23:48.458Z,97.40
2017-08-20T01:26:14.592Z,97.40
2017-08-20T01:28:41.821Z,97.50
2017-08-20T01:31:07.954Z,97.20
2017-08-20T01:33:34.089Z,97.10
2017-08-20T01:36:00.973Z,96.90
2017-08-20T01:38:27.226Z,96.90
2017-08-20T01:40:53.359Z,96.70
2017-08-20T01:43:19.506Z,96.70
2017-08-20T01:45:45.649Z,96.70
2017-08-20T01:48:12.532Z,96.80
2017-08-20T01:50:38.696Z,96.80
2017-08-20T01:53:04.843Z,96.80
2017-08-20T01:55:31.816Z,96.90
2017-08-20T01:57:58.149Z,96.90
2017-08-20T02:00:36.800Z,96.80
2017-08-20T02:03:02.969Z,97.10
2017-08-20T02:05:29.101Z,97.20
2017-08-20T02:07:55.244Z,97.20
2017-08-20T02:10:21.502Z,97.20
2017-08-20T02:12:47.632Z,97.30
2017-08-20T02:15:13.744Z,97.50
2017-08-20T02:17:40.200Z,97.60
2017-08-20T02:20:06.342Z,97.40
2017-08-20T02:22:32.485Z,97.60
2017-08-20T02:24:58.638Z,97.70
2017-08-20T02:27:24.782Z,97.80
2017-08-20T02:29:50.942Z,97.80
2017-08-20T02:32:17.101Z,98.00
2017-08-20T02:34:43.242Z,97.90
2017-08-20T02:37:09.361Z,98.00
2017-08-20T02:39:35.585Z,98.00
2017-08-20T02:42:01.792Z,98.00
2017-08-20T02:44:27.929Z,98.10
2017-08-20T02:46:54.069Z,98.10
2017-08-20T02:49:20.225Z,98.20
2017-08-20T02:51:46.389Z,98.20
2017-08-20T02:54:12.529Z,98.10
2017-08-20T02:56:39.402Z,98.20
2017-08-20T02:59:05.573Z,98.20
2017-08-20T03:01:31.710Z,98.10
2017-08-20T03:03:58.585Z,98.20
2017-08-20T03:06:24.984Z,98.00
2017-08-20T03:08:51.123Z,98.00
2017-08-20T03:11:17.264Z,97.90
2017-08-20T03:13:43.409Z,97.80
2017-08-20T03:16:09.541Z,97.70
2017-08-20T03:18:35.678Z,97.60
2017-08-20T03:21:01.846Z,97.70
2017-08-20T03:23:28.726Z,97.60
2017-08-20T03:25:54.852Z,97.60
2017-08-20T03:28:21.005Z,97.50
2017-08-20T03:30:47.132Z,97.50
2017-08-20T03:33:13.336Z,97.30
2017-08-20T03:35:39.499Z,97.40
2017-08-20T03:38:05.648Z,97.30
2017-08-20T03:40:32.525Z,97.30
2017-08-20T03:42:58.692Z,97.30
2017-08-20T03:45:24.826Z,97.50
2017-08-20T03:47:50.979Z,97.40
2017-08-20T03:50:17.258Z,97.40
2017-08-20T03:52:43.409Z,97.40
2017-08-20T03:55:09.545Z,97.40
2017-08-20T03:57:36.440Z,97.50
2017-08-20T04:00:02.585Z,97.40
2017-08-20T04:02:28.712Z,97.50
2017-08-20T04:04:54.904Z,97.40
2017-08-20T04:07:21.040Z,97.40
2017-08-20T04:09:47.168Z,97.40
2017-08-20T04:12:13.340Z,97.50
2017-08-20T04:14:39.473Z,97.50
2017-08-20T04:17:06.346Z,97.60
2017-08-20T04:19:32.518Z,97.60
2017-08-20T04:21:58.643Z,97.50
2017-08-20T04:24:24.822Z,97.60
2017-08-20T04:26:51.001Z,97.50
2017-08-20T04:29:17.184Z,97.70
2017-08-20T04:31:43.304Z,97.60
2017-08-20T04:34:09.460Z,97.60
2017-08-20T04:36:35.581Z,97.70
2017-08-20T04:39:01.746Z,97.60
2017-08-20T04:41:28.051Z,97.70
2017-08-20T04:43:54.211Z,97.60
2017-08-20T04:46:21.077Z,97.70
2017-08-20T04:48:47.213Z,97.70
2017-08-20T04:51:13.370Z,97.60
2017-08-20T04:53:39.537Z,97.60
2017-08-20T04:56:06.425Z,97.70
2017-08-20T04:58:32.593Z,97.70
2017-08-20T05:00:59.633Z,97.70
2017-08-20T05:03:25.981Z,97.70
2017-08-20T05:05:52.108Z,97.70
2017-08-20T05:08:18.352Z,97.70
2017-08-20T05:10:44.493Z,97.70
2017-08-20T05:13:10.618Z,97.60
2017-08-20T05:15:36.789Z,97.40
2017-08-20T05:18:02.929Z,97.30
2017-08-20T05:20:29.070Z,97.40
2017-08-20T05:22:56.289Z,97.30
2017-08-20T05:25:22.421Z,97.20
2017-08-20T05:27:48.565Z,97.40
2017-08-20T05:30:14.729Z,97.50
2017-08-20T05:32:40.862Z,97.20
2017-08-20T05:35:06.995Z,97.00
2017-08-20T05:37:33.135Z,96.90
2017-08-20T05:39:59.276Z,97.10
2017-08-20T05:42:25.416Z,97.10
2017-08-20T05:44:51.537Z,97.00
2017-08-20T05:47:17.677Z,97.00
2017-08-20T05:49:44.897Z,96.40
2017-08-20T05:52:11.044Z,96.40
2017-08-20T05:54:37.178Z,96.40
2017-08-20T05:57:04.187Z,96.40
2017-08-20T05:59:30.314Z,96.10
2017-08-20T06:01:56.444Z,96.00
2017-08-20T06:04:22.609Z,96.00
2017-08-20T06:06:49.485Z,95.60
2017-08-20T06:09:15.621Z,95.60
2017-08-20T06:11:41.805Z,95.90
2017-08-20T06:14:07.930Z,96.00
2017-08-20T06:16:34.830Z,95.50
2017-08-20T06:19:01.281Z,95.50
2017-08-20T06:21:27.421Z,95.30
2017-08-20T06:23:53.557Z,95.20
2017-08-20T06:26:20.462Z,94.70
2017-08-20T06:28:46.591Z,94.70
2017-08-20T06:31:12.721Z,94.80
2017-08-20T06:33:39.872Z,95.10
2017-08-20T06:36:07.074Z,94.40
2017-08-20T06:38:34.368Z,94.00
2017-08-20T06:41:01.340Z,93.80
2017-08-20T06:43:27.470Z,93.80
2017-08-20T06:45:54.700Z,93.90
2017-08-20T06:48:20.866Z,93.70
2017-08-20T06:50:46.998Z,93.90
2017-08-20T06:53:13.185Z,93.60
2017-08-20T06:55:39.311Z,93.20
2017-08-20T06:58:05.477Z,92.90
2017-08-20T07:00:31.619Z,93.10
2017-08-20T07:02:57.754Z,92.80
2017-08-20T07:05:23.926Z,92.60
2017-08-20T07:07:50.058Z,92.70
2017-08-20T07:10:16.929Z,92.60
2017-08-20T07:12:43.076Z,92.20
2017-08-20T07:15:09.208Z,92.50
2017-08-20T07:17:35.493Z,92.40
2017-08-20T07:20:02.401Z,92.20
2017-08-20T07:22:28.533Z,92.20
2017-08-20T07:24:54.664Z,91.70
2017-08-20T07:27:20.985Z,91.90
2017-08-20T07:29:47.109Z,91.50
2017-08-20T07:32:13.242Z,91.60
2017-08-20T07:34:39.425Z,92.00
2017-08-20T07:37:05.572Z,92.30
2017-08-20T07:39:31.709Z,91.40
2017-08-20T07:41:58.006Z,90.60
2017-08-20T07:44:24.137Z,90.10
2017-08-20T07:46:50.265Z,88.80
2017-08-20T07:49:16.397Z,87.80
2017-08-20T07:51:42.530Z,88.90
2017-08-20T07:54:09.694Z,87.90
2017-08-20T07:56:35.831Z,87.60
2017-08-20T07:59:02.024Z,87.00
2017-08-20T08:01:28.173Z,88.00
2017-08-20T08:03:54.316Z,87.40
2017-08-20T08:06:20.444Z,88.30
2017-08-20T08:08:46.584Z,87.30
2017-08-20T08:11:13.447Z,87.80
2017-08-20T08:13:39.574Z,87.70
2017-08-20T08:16:05.750Z,87.60
2017-08-20T08:18:31.886Z,86.70
2017-08-20T08:20:58.005Z,88.70
2017-08-20T08:23:24.154Z,88.30
2017-08-20T08:25:51.023Z,87.10
2017-08-20T08:28:17.160Z,87.00
2017-08-20T08:30:43.620Z,87.90
2017-08-20T08:33:09.762Z,88.00
2017-08-20T08:35:36.173Z,87.60
2017-08-20T08:38:02.401Z,86.00
2017-08-20T08:40:28.513Z,84.90
2017-08-20T08:42:55.036Z,86.30
2017-08-20T08:45:21.777Z,86.30
2017-08-20T08:47:47.966Z,86.10
2017-08-20T08:50:14.832Z,83.30
2017-08-20T08:52:41.256Z,82.70
2017-08-20T08:55:07.524Z,82.60
2017-08-20T08:57:34.714Z,80.50
2017-08-20T09:00:01.157Z,82.00
2017-08-20T09:02:27.436Z,80.40
2017-08-20T09:04:54.687Z,78.90
2017-08-20T09:07:21.641Z,78.60
2017-08-20T09:09:47.832Z,80.80
2017-08-20T09:12:15.028Z,79.50
2017-08-20T09:14:41.744Z,79.30
2017-08-20T09:17:08.808Z,79.00
2017-08-20T09:19:35.370Z,79.10
2017-08-20T09:22:02.675Z,79.70
2017-08-20T09:24:29.634Z,78.30
2017-08-20T09:26:56.454Z,78.30
2017-08-20T09:29:23.354Z,78.80
2017-08-20T09:31:49.566Z,79.90
2017-08-20T09:34:16.101Z,79.60
2017-08-20T09:36:43.309Z,81.00
2017-08-20T09:39:09.761Z,78.30
2017-08-20T09:41:36.685Z,77.50
2017-08-20T09:44:03.703Z,77.50
2017-08-20T09:46:31.064Z,78.50
2017-08-20T09:48:58.629Z,78.00
2017-08-20T09:51:25.016Z,78.00
2017-08-20T09:53:51.177Z,76.00
2017-08-20T09:56:18.083Z,76.10
2017-08-20T09:58:44.380Z,75.90
2017-08-20T10:01:10.509Z,77.00
2017-08-20T10:03:36.785Z,78.30
2017-08-20T10:06:02.948Z,77.70
2017-08-20T10:08:29.064Z,78.70
2017-08-20T10:10:55.916Z,77.90
2017-08-20T10:13:22.088Z,77.70
2017-08-20T10:15:48.213Z,76.60
2017-08-20T10:18:14.352Z,75.80
2017-08-20T10:20:40.502Z,77.00
2017-08-20T10:23:07.382Z,76.30
2017-08-20T10:25:33.563Z,75.50
2017-08-20T10:27:59.725Z,74.50
2017-08-20T10:30:25.860Z,74.90
2017-08-20T10:32:52.113Z,74.60
2017-08-20T10:35:18.252Z,75.30
2017-08-20T10:37:44.572Z,75.30
2017-08-20T10:40:10.720Z,77.00
2017-08-20T10:42:36.831Z,84.10
2017-08-20T10:45:02.985Z,90.40
2017-08-20T10:47:29.844Z,95.00
2017-08-20T10:49:56.718Z,96.50
2017-08-20T10:52:22.928Z,96.60
2017-08-20T10:54:49.045Z,97.50
2017-08-20T10:57:15.177Z,98.20
2017-08-20T10:59:41.653Z,98.20
2017-08-20T11:02:07.766Z,99.00
2017-08-20T11:04:34.193Z,98.90
2017-08-20T11:07:00.666Z,99.30
2017-08-20T11:09:26.845Z,99.10
2017-08-20T11:11:53.189Z,99.40
2017-08-20T11:14:19.529Z,99.30
2017-08-20T11:16:45.881Z,98.80
2017-08-20T11:19:12.010Z,98.80
2017-08-20T11:21:38.486Z,97.80
2017-08-20T11:24:04.634Z,97.90
2017-08-20T11:26:30.809Z,97.80
2017-08-20T11:28:57.883Z,98.00
2017-08-20T11:31:24.009Z,98.00
2017-08-20T11:33:50.154Z,97.60
2017-08-20T11:36:16.299Z,97.20
2017-08-20T11:38:42.405Z,97.40
2017-08-20T11:41:08.557Z,96.80
2017-08-20T11:43:34.724Z,97.00
2017-08-20T11:46:00.876Z,96.90
2017-08-20T11:48:27.030Z,97.00
2017-08-20T11:50:53.634Z,96.10
2017-08-20T11:53:19.745Z,96.40
2017-08-20T11:55:46.001Z,94.90
2017-08-20T11:58:12.557Z,95.20
2017-08-20T12:00:38.692Z,96.00
2017-08-20T12:03:05.050Z,95.90
2017-08-20T12:05:31.265Z,95.20
2017-08-20T12:07:57.524Z,94.30
2017-08-20T12:10:23.665Z,94.10
2017-08-20T12:12:50.541Z,93.80
2017-08-20T12:15:16.670Z,93.70
2017-08-20T12:17:42.810Z,94.00
2017-08-20T12:20:09.050Z,93.90
2017-08-20T12:22:35.251Z,93.80
2017-08-20T12:25:01.649Z,93.60
2017-08-20T12:27:28.006Z,93.00
2017-08-20T12:29:54.185Z,93.20
2017-08-20T12:32:20.325Z,92.60
2017-08-20T12:34:46.502Z,92.50
2017-08-20T12:37:12.659Z,92.20
2017-08-20T12:39:39.621Z,91.20
2017-08-20T12:42:05.992Z,91.10
2017-08-20T12:44:32.136Z,90.10
2017-08-20T12:46:58.269Z,90.30
2017-08-20T12:49:24.682Z,90.20
2017-08-20T12:51:50.818Z,90.10
2017-08-20T12:54:16.979Z,89.00
2017-08-20T12:56:43.473Z,85.00
2017-08-20T12:59:09.977Z,84.60
2017-08-20T13:01:36.123Z,83.80
2017-08-20T13:04:02.292Z,84.00
2017-08-20T13:06:29.414Z,85.40
2017-08-20T13:08:55.558Z,85.40
2017-08-20T13:11:22.558Z,86.90
2017-08-20T13:13:48.683Z,86.90
2017-08-20T13:16:14.805Z,89.30
2017-08-20T13:18:41.437Z,90.00
2017-08-20T13:21:07.642Z,89.80
2017-08-20T13:23:34.099Z,89.50
2017-08-20T13:26:00.504Z,90.20
2017-08-20T13:28:26.846Z,88.90
2017-08-20T13:30:53.022Z,88.70
2017-08-20T13:33:19.228Z,86.90
2017-08-20T13:35:45.541Z,84.40
2017-08-20T13:38:11.668Z,82.30
2017-08-20T13:40:38.328Z,80.70
2017-08-20T13:43:04.440Z,81.30
2017-08-20T13:45:30.593Z,80.60
2017-08-20T13:47:57.008Z,81.10
2017-08-20T13:50:23.126Z,78.40
2017-08-20T13:52:49.261Z,75.40
2017-08-20T13:55:15.460Z,75.30
2017-08-20T13:57:41.965Z,76.90
2017-08-20T14:00:08.836Z,69.30
2017-08-20T14:02:34.966Z,69.20
2017-08-20T14:05:01.104Z,68.40
2017-08-20T14:07:27.553Z,69.00
2017-08-20T14:09:53.888Z,67.20
2017-08-20T14:12:20.017Z,67.00
2017-08-20T14:14:46.424Z,70.60
2017-08-20T14:17:12.548Z,72.40
2017-08-20T14:19:38.725Z,73.70
2017-08-20T14:22:05.912Z,73.00
2017-08-20T14:24:32.045Z,72.80
2017-08-20T14:26:58.804Z,75.30
2017-08-20T14:29:24.917Z,77.50
2017-08-20T14:31:51.141Z,80.00
2017-08-20T14:34:17.536Z,78.10
2017-08-20T14:36:43.673Z,76.30
2017-08-20T14:39:09.805Z,77.30
2017-08-20T14:41:35.953Z,81.00
2017-08-20T14:44:02.121Z,83.70
2017-08-20T14:46:28.256Z,87.10
2017-08-20T14:48:55.133Z,93.30
2017-08-20T14:51:21.346Z,93.00
2017-08-20T14:53:47.524Z,93.30
2017-08-20T14:56:13.894Z,94.30
2017-08-20T14:58:40.773Z,94.30
2017-08-20T15:01:06.921Z,94.30
2017-08-20T15:03:33.077Z,93.60
2017-08-20T15:05:59.192Z,94.30
2017-08-20T15:08:25.702Z,94.30
2017-08-20T15:10:52.956Z,95.40
2017-08-20T15:13:19.074Z,95.40
2017-08-20T15:15:45.218Z,95.50
2017-08-20T15:18:11.396Z,95.70
2017-08-20T15:20:37.802Z,95.50
2017-08-20T15:23:03.933Z,95.40
2017-08-20T15:25:30.940Z,94.60
2017-08-20T15:27:57.088Z,94.60
2017-08-20T15:30:23.208Z,94.40
2017-08-20T15:32:49.706Z,94.10
2017-08-20T15:35:15.873Z,94.50
2017-08-20T15:37:42.187Z,92.90
2017-08-20T15:40:08.364Z,93.30
2017-08-20T15:42:34.665Z,93.60
2017-08-20T15:45:00.794Z,93.40
2017-08-20T15:47:27.307Z,93.70
2017-08-20T15:49:53.424Z,93.70
2017-08-20T15:52:19.555Z,94.20
2017-08-20T15:54:45.861Z,93.70
2017-08-20T15:57:12.038Z,94.30
2017-08-20T15:59:38.957Z,93.60
2017-08-20T16:02:05.130Z,93.40
2017-08-20T16:04:31.255Z,92.90
2017-08-20T16:06:57.376Z,93.40
2017-08-20T16:09:24.272Z,93.50
2017-08-20T16:11:50.709Z,93.20
2017-08-20T16:14:16.833Z,90.00
2017-08-20T16:16:43.149Z,90.10
2017-08-20T16:19:09.276Z,90.60
2017-08-20T16:21:35.448Z,88.40
2017-08-20T16:24:02.665Z,90.50
2017-08-20T16:26:28.818Z,90.50
2017-08-20T16:28:55.528Z,90.20
2017-08-20T16:31:22.048Z,90.50
2017-08-20T16:33:48.969Z,88.80
2017-08-20T16:36:15.104Z,88.80
2017-08-20T16:38:41.413Z,90.60
2017-08-20T16:41:08.274Z,89.20
2017-08-20T16:43:34.391Z,89.30
2017-08-20T16:46:00.592Z,90.00
2017-08-20T16:48:27.469Z,90.40
2017-08-20T16:50:53.592Z,90.10
2017-08-20T16:53:19.897Z,90.00
2017-08-20T16:55:46.921Z,90.20
2017-08-20T16:58:13.035Z,90.20
2017-08-20T17:00:39.161Z,91.00
2017-08-20T17:03:05.280Z,90.30
2017-08-20T17:05:31.458Z,90.80
2017-08-20T17:07:57.743Z,90.50
2017-08-20T17:10:24.150Z,90.20
2017-08-20T17:12:50.309Z,90.50
2017-08-20T17:15:16.568Z,91.00
2017-08-20T17:17:43.434Z,90.20
2017-08-20T17:20:09.556Z,90.20
2017-08-20T17:22:35.880Z,90.40
2017-08-20T17:25:02.045Z,90.50
2017-08-20T17:27:28.213Z,90.60
2017-08-20T17:29:55.426Z,90.90
2017-08-20T17:32:21.573Z,90.70
2017-08-20T17:34:47.700Z,91.00
2017-08-20T17:37:14.631Z,91.10
2017-08-20T17:39:40.760Z,91.10
2017-08-20T17:42:06.895Z,91.50
2017-08-20T17:44:33.140Z,91.60
2017-08-20T17:46:59.436Z,91.70
2017-08-20T17:49:25.590Z,91.90
2017-08-20T17:51:52.476Z,92.40
2017-08-20T17:54:18.629Z,92.10
2017-08-20T17:56:44.775Z,91.80
2017-08-20T17:59:11.997Z,92.20
2017-08-20T18:01:38.145Z,92.40
2017-08-20T18:04:04.274Z,92.20
2017-08-20T18:06:30.477Z,92.70
2017-08-20T18:08:56.637Z,92.20
2017-08-20T18:11:22.770Z,92.20
2017-08-20T18:13:49.661Z,92.60
2017-08-20T18:16:15.799Z,92.20
2017-08-20T18:18:42.048Z,92.10
2017-08-20T18:21:08.196Z,92.10
2017-08-20T18:23:35.244Z,92.50
2017-08-20T18:26:02.386Z,92.70
2017-08-20T18:28:28.588Z,92.40
2017-08-20T18:30:54.958Z,92.70
2017-08-20T18:33:22.002Z,92.90
2017-08-20T18:35:48.129Z,92.90
2017-08-20T18:38:15.401Z,93.20
2017-08-20T18:40:41.722Z,93.10
2017-08-20T18:43:08.477Z,93.50
2017-08-20T18:45:35.572Z,93.70
2017-08-20T18:48:02.610Z,93.90
2017-08-20T18:50:29.532Z,94.10
2017-08-20T18:52:55.660Z,94.10
2017-08-20T18:55:22.116Z,95.30
2017-08-20T18:57:48.440Z,94.50
2017-08-20T19:00:14.587Z,94.50
2017-08-20T19:02:41.460Z,95.10
2017-08-20T19:05:07.602Z,95.00
2017-08-20T19:07:33.976Z,95.00
2017-08-20T19:10:00.186Z,95.30
2017-08-20T19:12:26.315Z,95.20
2017-08-20T19:14:52.489Z,95.40
2017-08-20T19:17:19.352Z,95.80
2017-08-20T19:19:45.486Z,95.80
2017-08-20T19:22:11.618Z,95.90
2017-08-20T19:24:37.806Z,96.00
2017-08-20T19:27:04.121Z,96.10
2017-08-20T19:29:30.357Z,96.30
2017-08-20T19:31:57.229Z,96.80
2017-08-20T19:34:23.421Z,96.70
2017-08-20T19:36:49.730Z,97.10
2017-08-20T19:39:15.980Z,97.40
2017-08-20T19:41:42.156Z,97.40
2017-08-20T19:44:08.313Z,97.70
2017-08-20T19:46:34.443Z,97.90
2017-08-20T19:49:00.608Z,98.00
2017-08-20T19:51:26.824Z,98.00
2017-08-20T19:53:53.707Z,98.80
2017-08-20T19:56:19.822Z,98.50
2017-08-20T19:58:46.285Z,98.40
2017-08-20T20:01:12.422Z,98.60
2017-08-20T20:03:38.861Z,98.40
2017-08-20T20:06:05.005Z,98.50
2017-08-20T20:08:31.863Z,97.90
2017-08-20T20:10:59.116Z,98.20
2017-08-20T20:13:26.146Z,98.00
2017-08-20T20:15:52.266Z,98.00
2017-08-20T20:18:18.533Z,98.00
2017-08-20T20:20:44.732Z,98.00
2017-08-20T20:23:10.874Z,98.00
2017-08-20T20:25:38.385Z,97.80
2017-08-20T20:28:04.527Z,97.80
2017-08-20T20:30:31.410Z,97.80
2017-08-20T20:32:57.768Z,97.80
2017-08-20T20:35:23.896Z,97.60
2017-08-20T20:37:50.841Z,97.60
2017-08-20T20:40:17.653Z,97.60
2017-08-20T20:42:43.774Z,97.60
2017-08-20T20:45:09.916Z,97.70
2017-08-20T20:47:36.280Z,97.70
2017-08-20T20:50:02.437Z,97.70
2017-08-20T20:52:29.644Z,97.90
2017-08-20T20:54:56.085Z,97.70
2017-08-20T20:57:22.220Z,97.70
2017-08-20T20:59:48.358Z,97.70
2017-08-20T21:02:14.725Z,97.70
2017-08-20T21:04:40.890Z,97.50
2017-08-20T21:07:07.037Z,97.50
2017-08-20T21:09:33.353Z,97.60
2017-08-20T21:11:59.492Z,97.60
2017-08-20T21:14:25.849Z,97.60
2017-08-20T21:16:52.740Z,97.50
2017-08-20T21:19:18.865Z,97.50
2017-08-20T21:21:45.157Z,97.60
2017-08-20T21:24:11.285Z,97.60
2017-08-20T21:26:37.408Z,97.70
2017-08-20T21:29:04.270Z,97.70
2017-08-20T21:31:30.385Z,97.60
2017-08-20T21:33:56.701Z,97.70
2017-08-20T21:36:22.836Z,97.60
2017-08-20T21:38:48.957Z,97.50
2017-08-20T21:41:15.211Z,97.40
2017-08-20T21:43:41.349Z,97.60
2017-08-20T21:46:07.514Z,97.90
2017-08-20T21:48:33.653Z,98.20
2017-08-20T21:51:00.527Z,98.30
2017-08-20T21:53:26.646Z,98.30
2017-08-20T21:55:52.771Z,98.50
2017-08-20T21:58:18.900Z,98.50
2017-08-20T22:00:45.022Z,98.40
2017-08-20T22:03:11.156Z,98.40
2017-08-20T22:05:37.265Z,98.40
2017-08-20T22:08:03.400Z,98.40
2017-08-20T22:10:29.540Z,98.30
2017-08-20T22:12:55.654Z,98.20
2017-08-20T22:15:21.791Z,98.20
2017-08-20T22:17:47.930Z,98.20
2017-08-20T22:20:14.053Z,98.10
2017-08-20T22:22:40.171Z,98.10
2017-08-20T22:25:06.305Z,98.10
2017-08-20T22:27:32.445Z,98.10
2017-08-20T22:29:58.564Z,98.20
2017-08-20T22:32:24.704Z,98.40
2017-08-20T22:34:50.824Z,98.50
2017-08-20T22:37:16.945Z,98.70
2017-08-20T22:39:43.057Z,98.80
2017-08-20T22:42:09.185Z,98.70
2017-08-20T22:44:35.315Z,98.80
2017-08-20T22:47:01.423Z,99.10
2017-08-20T22:49:27.549Z,99.00
2017-08-20T22:51:53.715Z,98.90
2017-08-20T22:54:19.878Z,99.00
2017-08-20T22:56:46.007Z,99.00
2017-08-20T22:59:12.155Z,98.80
2017-08-20T23:01:38.292Z,98.90
2017-08-20T23:04:04.425Z,99.00
2017-08-20T23:06:30.860Z,99.10
2017-08-20T23:08:56.980Z,99.00
2017-08-20T23:11:23.131Z,99.10
2017-08-20T23:13:49.273Z,99.00
2017-08-20T23:16:16.134Z,99.30
2017-08-20T23:18:42.256Z,99.00
2017-08-20T23:21:08.741Z,98.90
2017-08-20T23:23:34.897Z,99.00
2017-08-20T23:26:01.768Z,98.90
2017-08-20T23:28:27.900Z,98.80
2017-08-20T23:30:54.015Z,98.90
2017-08-20T23:33:20.309Z,98.90
2017-08-20T23:35:46.416Z,99.00
2017-08-20T23:38:12.554Z,99.00
2017-08-20T23:40:38.700Z,99.10
2017-08-20T23:43:05.575Z,99.60
2017-08-20T23:45:31.692Z,99.40
2017-08-20T23:47:57.829Z,99.40
2017-08-20T23:50:23.947Z,99.30
2017-08-20T23:52:50.086Z,99.40
2017-08-20T23:55:16.213Z,99.30
2017-08-20T23:57:42.342Z,99.30
